createdAt,value
2023-09-08T00:09:10.153Z,6.00
2023-09-08T00:19:33.717Z,6.00
2023-09-08T00:40:22.149Z,6.60
2023-09-08T00:50:46.367Z,6.10
2023-09-08T01:01:10.998Z,7.00
2023-09-08T01:11:35.488Z,7.10
2023-09-08T01:32:23.617Z,8.60
2023-09-08T01:42:49.444Z,8.70
2023-09-08T01:53:13.253Z,7.60
2023-09-08T02:03:37.780Z,7.70
2023-09-08T02:14:02.020Z,8.60
2023-09-08T02:24:25.939Z,7.30
2023-09-08T02:34:51.239Z,6.20
2023-09-08T02:45:16.150Z,6.30
2023-09-08T02:55:40.245Z,6.70
2023-09-08T03:06:05.644Z,7.60
2023-09-08T03:16:30.416Z,8.40
2023-09-08T03:37:19.075Z,9.60
2023-09-08T03:47:43.728Z,8.20
2023-09-08T03:58:07.944Z,7.40
2023-09-08T04:08:32.828Z,7.20
2023-09-08T04:18:57.840Z,8.30
2023-09-08T04:29:22.020Z,8.30
2023-09-08T04:39:46.528Z,7.30
2023-09-08T04:50:11.269Z,10.40
2023-09-08T05:00:35.048Z,10.90
2023-09-08T05:11:31.794Z,9.30
2023-09-08T05:22:19.445Z,9.10
2023-09-08T05:32:43.401Z,9.80
2023-09-08T05:43:08.140Z,9.20
2023-09-08T05:53:34.629Z,10.60
2023-09-08T06:03:59.053Z,14.10
2023-09-08T06:14:24.868Z,11.30
2023-09-08T06:24:51.641Z,13.10
2023-09-08T06:35:15.835Z,15.60
2023-09-08T06:45:43.306Z,11.60
2023-09-08T06:56:08.992Z,10.80
2023-09-08T07:06:33.052Z,10.70
2023-09-08T07:16:57.526Z,11.90
2023-09-08T07:27:22.081Z,10.60
2023-09-08T07:37:46.601Z,11.00
2023-09-08T07:48:11.661Z,9.60
2023-09-08T07:58:51.359Z,10.30
2023-09-08T08:09:27.190Z,10.50
2023-09-08T08:20:20.829Z,8.90
2023-09-08T08:30:47.402Z,8.00
2023-09-08T08:41:13.037Z,8.60
2023-09-08T08:51:38.209Z,7.20
2023-09-08T09:02:06.988Z,8.00
2023-09-08T09:12:31.415Z,6.10
2023-09-08T09:22:55.939Z,4.80
2023-09-08T09:33:20.995Z,5.60
2023-09-08T09:43:45.722Z,5.20
2023-09-08T09:54:10.950Z,5.60
2023-09-08T10:04:35.824Z,5.10
2023-09-08T10:15:00.592Z,4.50
2023-09-08T10:25:29.135Z,4.60
2023-09-08T10:35:54.809Z,4.60
2023-09-08T10:46:28.472Z,4.80
2023-09-08T10:56:57.771Z,4.30
2023-09-08T11:07:22.692Z,3.90
2023-09-08T11:17:46.895Z,3.80
2023-09-08T11:28:11.959Z,3.80
2023-09-08T11:38:36.554Z,3.60
2023-09-08T11:49:01.168Z,3.50
2023-09-08T11:59:27.433Z,3.20
2023-09-08T12:09:52.062Z,3.30
2023-09-08T12:20:16.967Z,6.90
2023-09-08T12:30:41.462Z,3.40
2023-09-08T12:41:06.231Z,2.90
2023-09-08T12:51:30.222Z,3.10
2023-09-08T13:01:54.501Z,3.60
2023-09-08T13:12:19.316Z,3.80
2023-09-08T13:22:43.980Z,3.30
2023-09-08T13:33:09.114Z,4.00
2023-09-08T13:43:33.884Z,3.80
2023-09-08T13:53:58.172Z,3.30
2023-09-08T14:04:25.326Z,3.20
2023-09-08T14:14:50.223Z,3.10
2023-09-08T14:25:14.648Z,3.10
2023-09-08T14:35:47.491Z,2.80
2023-09-08T14:46:12.217Z,3.20
2023-09-08T14:56:36.658Z,3.40
2023-09-08T15:07:01.046Z,3.40
2023-09-08T15:17:25.671Z,4.20
2023-09-08T15:27:49.509Z,4.10
2023-09-08T15:38:16.953Z,5.50
2023-09-08T15:48:41.304Z,4.40
2023-09-08T15:59:05.296Z,4.40
2023-09-08T16:09:30.166Z,4.10
2023-09-08T16:19:54.239Z,4.20
2023-09-08T16:30:18.661Z,3.60
2023-09-08T16:40:43.028Z,4.20
2023-09-08T16:51:07.446Z,6.50
2023-09-08T17:01:31.621Z,5.10
2023-09-08T17:11:55.969Z,4.70
2023-09-08T17:22:20.576Z,30.60
2023-09-08T17:32:44.341Z,16.80
2023-09-08T17:43:09.089Z,4.60
2023-09-08T17:53:37.155Z,5.00
2023-09-08T18:04:01.464Z,5.10
2023-09-08T18:14:26.094Z,5.00
2023-09-08T18:24:50.270Z,5.50
2023-09-08T18:35:14.415Z,4.70
2023-09-08T18:45:38.940Z,6.10
2023-09-08T18:56:05.266Z,5.80
2023-09-08T19:06:29.689Z,6.30
2023-09-08T19:16:53.869Z,5.90
2023-09-08T19:27:18.746Z,6.80
2023-09-08T19:37:42.961Z,6.00
2023-09-08T19:48:08.311Z,5.80
2023-09-08T19:58:32.926Z,6.10
2023-09-08T20:08:57.233Z,5.60
2023-09-08T20:19:25.328Z,5.30
2023-09-08T20:29:56.604Z,6.40
2023-09-08T20:40:20.614Z,6.20
2023-09-08T20:50:45.028Z,5.90
2023-09-08T21:01:10.633Z,6.80
2023-09-08T21:11:36.271Z,7.00
2023-09-08T21:22:01.126Z,6.40
2023-09-08T21:32:25.597Z,6.50
2023-09-08T21:42:49.407Z,5.70
2023-09-08T21:53:14.124Z,6.40
2023-09-08T22:03:38.491Z,6.30
2023-09-08T22:14:02.922Z,6.30
2023-09-08T22:24:27.270Z,6.00
2023-09-08T22:34:51.283Z,6.20
2023-09-08T22:45:15.233Z,6.30
2023-09-08T22:55:39.539Z,7.00
2023-09-08T23:06:03.900Z,5.70
2023-09-08T23:16:28.415Z,5.30
2023-09-08T23:26:52.574Z,5.90
2023-09-08T23:37:17.521Z,6.30
2023-09-08T23:47:41.796Z,6.10
2023-09-08T23:58:05.915Z,5.60
